Terminal Aerodrome Forecast
Issued by NWS

Home | Current Version | Previous Version | Text Only | Print | Product List | Glossary On
Versions: 1 2 3 4 5 6 7 8 9 10 11 12 13 14 15 16 17 18 19 20 21 22 23 24 25 26 27 28 29 30 31 32 33 34 35 36 37 38 39 40 41 42 43
000
FTAK31 PANC 032137 AAA
TAFADU
TAF AMD
PADU 032137Z 0322/0418 VRB04KT P6SM SCT015 SCT025 OVC035
      TEMPO 0322/0324 5SM BR OVC025
     FM040000 18006KT P6SM BKN007 OVC015
     FM040400 26007KT P6SM BKN007 OVC015
     FM041200 28006KT P6SM BKN015 BKN040=

USA.gov is the U.S. government's official web portal to all federal, state and local government web resources and services.